createdAt,value
2018-12-08T00:00:16.110Z,22.25
2018-12-08T00:02:46.802Z,23.83
2018-12-08T00:05:17.477Z,22.52
2018-12-08T00:07:48.250Z,21.55
2018-12-08T00:10:18.816Z,22.20
2018-12-08T00:12:49.335Z,21.37
2018-12-08T00:15:20.030Z,23.45
2018-12-08T00:17:50.762Z,22.80
2018-12-08T00:20:21.308Z,22.02
2018-12-08T00:22:52.712Z,22.27
2018-12-08T00:25:23.351Z,22.62
2018-12-08T00:27:53.956Z,22.58
2018-12-08T00:30:35.197Z,21.52
2018-12-08T00:33:05.668Z,21.82
2018-12-08T00:35:36.622Z,22.22
2018-12-08T00:38:07.366Z,22.20
2018-12-08T00:40:38.055Z,23.07
2018-12-08T00:43:08.493Z,21.82
2018-12-08T00:45:39.064Z,21.45
2018-12-08T00:48:09.694Z,21.65
2018-12-08T00:50:40.294Z,21.33
2018-12-08T00:53:11.474Z,21.50
2018-12-08T00:55:42.100Z,20.68
2018-12-08T00:58:12.927Z,21.50
2018-12-08T01:00:43.701Z,21.75
2018-12-08T01:03:14.492Z,21.12
2018-12-08T01:05:45.156Z,21.00
2018-12-08T01:08:15.831Z,20.95
2018-12-08T01:10:46.792Z,19.35
2018-12-08T01:13:17.585Z,19.55
2018-12-08T01:15:48.418Z,19.17
2018-12-08T01:18:19.367Z,19.32
2018-12-08T01:20:50.198Z,18.67
2018-12-08T01:23:21.018Z,18.40
2018-12-08T01:25:51.907Z,15.68
2018-12-08T01:28:22.349Z,15.10
2018-12-08T01:30:53.052Z,17.10
2018-12-08T01:33:23.729Z,15.75
2018-12-08T01:35:54.588Z,17.23
2018-12-08T01:38:25.451Z,15.35
2018-12-08T01:40:56.053Z,16.73
2018-12-08T01:43:26.731Z,17.48
2018-12-08T01:45:57.515Z,16.65
2018-12-08T01:48:28.449Z,17.62
2018-12-08T01:50:59.065Z,16.93
2018-12-08T01:53:29.866Z,17.57
2018-12-08T01:56:00.920Z,17.32
2018-12-08T01:58:31.499Z,17.00
2018-12-08T02:01:02.142Z,15.75
2018-12-08T02:03:32.658Z,15.93
2018-12-08T02:06:03.374Z,15.48
2018-12-08T02:08:34.318Z,14.83
2018-12-08T02:11:07.072Z,14.73
2018-12-08T02:13:37.658Z,14.45
2018-12-08T02:16:08.169Z,13.83
2018-12-08T02:18:38.766Z,14.23
2018-12-08T02:21:09.672Z,15.05
2018-12-08T02:23:40.207Z,16.10
2018-12-08T02:26:10.974Z,14.80
2018-12-08T02:28:41.463Z,15.70
2018-12-08T02:31:12.021Z,14.87
2018-12-08T02:33:42.561Z,15.35
2018-12-08T02:36:13.768Z,15.35
2018-12-08T02:38:44.763Z,14.43
2018-12-08T02:41:15.554Z,15.45
2018-12-08T02:43:46.330Z,15.40
2018-12-08T02:46:17.074Z,14.98
2018-12-08T02:48:47.597Z,16.02
2018-12-08T02:51:18.239Z,15.72
2018-12-08T02:53:49.000Z,14.53
2018-12-08T02:56:19.910Z,14.63
2018-12-08T02:58:50.338Z,14.33
2018-12-08T03:01:20.849Z,14.10
2018-12-08T03:03:51.567Z,14.00
2018-12-08T03:06:22.758Z,14.10
2018-12-08T03:08:53.538Z,13.03
2018-12-08T03:11:23.972Z,13.43
2018-12-08T03:13:54.670Z,14.13
2018-12-08T03:16:25.377Z,13.13
2018-12-08T03:18:56.459Z,13.55
2018-12-08T03:21:27.403Z,12.98
2018-12-08T03:23:57.910Z,13.70
2018-12-08T03:26:28.654Z,14.33
2018-12-08T03:28:59.304Z,13.22
2018-12-08T03:31:30.018Z,13.30
2018-12-08T03:34:00.920Z,13.60
2018-12-08T03:36:31.632Z,13.85
2018-12-08T03:39:02.279Z,13.98
2018-12-08T03:41:34.155Z,13.38
2018-12-08T03:44:04.989Z,13.72
2018-12-08T03:46:35.691Z,14.13
2018-12-08T03:49:06.330Z,15.23
2018-12-08T03:51:36.987Z,15.28
2018-12-08T03:54:07.844Z,17.48
2018-12-08T03:56:38.537Z,15.20
2018-12-08T03:59:09.057Z,14.73
2018-12-08T04:01:39.822Z,14.35
2018-12-08T04:04:10.780Z,15.55
2018-12-08T04:06:41.475Z,14.80
2018-12-08T04:09:12.218Z,16.45
2018-12-08T04:11:42.775Z,17.35
2018-12-08T04:14:13.378Z,16.90
2018-12-08T04:16:44.253Z,18.05
2018-12-08T04:19:14.717Z,18.67
2018-12-08T04:21:45.388Z,20.60
2018-12-08T04:24:16.674Z,20.82
2018-12-08T04:26:47.405Z,20.15
2018-12-08T04:29:18.138Z,19.82
2018-12-08T04:31:48.886Z,20.05
2018-12-08T04:34:19.707Z,24.15
2018-12-08T04:36:50.504Z,24.23
2018-12-08T04:39:21.476Z,19.37
2018-12-08T04:41:52.257Z,19.07
2018-12-08T04:44:22.733Z,18.65
2018-12-08T04:46:53.998Z,19.02
2018-12-08T04:49:24.873Z,21.65
2018-12-08T04:51:55.559Z,24.67
2018-12-08T04:54:26.046Z,24.43
2018-12-08T04:56:56.693Z,22.30
2018-12-08T04:59:27.685Z,21.42
2018-12-08T05:01:58.172Z,19.70
2018-12-08T05:04:28.762Z,19.70
2018-12-08T05:06:59.931Z,20.92
2018-12-08T05:09:30.585Z,23.60
2018-12-08T05:12:01.528Z,20.37
2018-12-08T05:14:32.781Z,20.48
2018-12-08T05:17:03.480Z,22.70
2018-12-08T05:19:33.967Z,24.00
2018-12-08T05:22:04.758Z,26.12
2018-12-08T05:24:35.575Z,22.93
2018-12-08T05:27:06.261Z,19.80
2018-12-08T05:29:36.867Z,19.65
2018-12-08T05:32:07.544Z,19.45
2018-12-08T05:34:38.205Z,19.02
2018-12-08T05:37:09.385Z,18.67
2018-12-08T05:39:40.048Z,23.45
2018-12-08T05:42:10.827Z,24.43
2018-12-08T05:44:41.427Z,23.87
2018-12-08T05:47:12.328Z,22.77
2018-12-08T05:49:43.154Z,37.30
2018-12-08T05:52:13.911Z,38.90
2018-12-08T05:54:44.488Z,28.60
2018-12-08T05:57:15.190Z,20.92
2018-12-08T05:59:45.883Z,19.35
2018-12-08T06:02:16.652Z,18.05
2018-12-08T06:04:47.211Z,17.05
2018-12-08T06:07:18.057Z,17.17
2018-12-08T06:09:49.717Z,20.45
2018-12-08T06:12:20.165Z,24.05
2018-12-08T06:14:50.660Z,19.35
2018-12-08T06:17:21.101Z,29.90
2018-12-08T06:19:51.732Z,24.52
2018-12-08T06:22:22.382Z,18.60
2018-12-08T06:24:53.082Z,15.48
2018-12-08T06:27:34.415Z,13.70
2018-12-08T06:30:05.151Z,16.10
2018-12-08T06:32:35.685Z,15.50
2018-12-08T06:35:06.342Z,15.03
2018-12-08T06:37:37.173Z,15.00
2018-12-08T06:40:07.934Z,14.98
2018-12-08T06:42:38.552Z,16.73
2018-12-08T06:45:10.447Z,16.45
2018-12-08T06:47:41.168Z,18.50
2018-12-08T06:50:11.874Z,17.75
2018-12-08T06:52:42.594Z,18.77
2018-12-08T06:55:13.229Z,15.55
2018-12-08T06:57:43.966Z,14.60
2018-12-08T07:00:14.669Z,13.97
2018-12-08T07:02:45.392Z,15.37
2018-12-08T07:05:16.348Z,14.47
2018-12-08T07:07:47.301Z,14.50
2018-12-08T07:10:18.053Z,13.93
2018-12-08T07:12:48.633Z,15.13
2018-12-08T07:15:19.255Z,14.93
2018-12-08T07:17:52.459Z,14.10
2018-12-08T07:20:23.501Z,13.03
2018-12-08T07:22:54.458Z,45.10
2018-12-08T07:25:25.272Z,55.57
2018-12-08T07:27:56.005Z,36.80
2018-12-08T07:30:26.696Z,22.70
2018-12-08T07:32:57.691Z,35.77
2018-12-08T07:35:28.415Z,15.37
2018-12-08T07:37:59.245Z,14.23
2018-12-08T07:40:29.827Z,22.20
2018-12-08T07:43:00.270Z,28.10
2018-12-08T07:45:30.821Z,20.80
2018-12-08T07:48:01.337Z,21.23
2018-12-08T07:50:32.245Z,12.23
2018-12-08T07:53:04.456Z,12.17
2018-12-08T07:55:35.339Z,12.17
2018-12-08T07:58:06.405Z,13.03
2018-12-08T08:00:37.105Z,12.70
2018-12-08T08:03:07.910Z,11.70
2018-12-08T08:05:38.521Z,12.50
2018-12-08T08:08:09.210Z,10.40
2018-12-08T08:10:39.832Z,11.67
2018-12-08T08:13:10.432Z,12.77
2018-12-08T08:15:41.774Z,12.67
2018-12-08T08:18:12.514Z,10.20
2018-12-08T08:20:43.124Z,14.67
2018-12-08T08:23:13.922Z,12.37
2018-12-08T08:25:44.500Z,18.27
2018-12-08T08:28:15.228Z,31.43
2018-12-08T08:30:46.121Z,25.07
2018-12-08T08:33:16.636Z,20.80
2018-12-08T08:35:47.410Z,15.47
2018-12-08T08:38:18.398Z,20.57
2018-12-08T08:40:49.654Z,15.17
2018-12-08T08:43:20.283Z,27.43
2018-12-08T08:45:50.895Z,13.53
2018-12-08T08:48:21.554Z,20.47
2018-12-08T08:50:52.360Z,18.30
2018-12-08T08:53:23.184Z,17.70
2018-12-08T08:55:53.889Z,16.50
2018-12-08T08:58:24.635Z,12.70
2018-12-08T09:00:55.302Z,14.70
2018-12-08T09:03:26.186Z,15.23
2018-12-08T09:05:57.558Z,10.30
2018-12-08T09:08:28.618Z,11.27
2018-12-08T09:10:59.198Z,10.77
2018-12-08T09:13:30.178Z,12.43
2018-12-08T09:16:00.892Z,12.37
2018-12-08T09:18:31.503Z,14.13
2018-12-08T09:21:03.263Z,11.47
2018-12-08T09:23:34.050Z,10.87
2018-12-08T09:26:04.987Z,9.33
2018-12-08T09:28:35.609Z,13.40
2018-12-08T09:31:06.365Z,20.57
2018-12-08T09:33:37.304Z,20.97
2018-12-08T09:36:07.998Z,15.17
2018-12-08T09:38:38.812Z,27.33
2018-12-08T09:41:09.430Z,24.17
2018-12-08T09:43:40.211Z,20.73
2018-12-08T09:46:11.163Z,24.17
2018-12-08T09:48:42.219Z,16.67
2018-12-08T09:51:12.801Z,14.73
2018-12-08T09:53:43.666Z,18.10
2018-12-08T09:56:15.657Z,14.73
2018-12-08T09:58:46.597Z,24.77
2018-12-08T10:01:17.311Z,14.13
2018-12-08T10:03:48.295Z,16.70
2018-12-08T10:06:20.225Z,19.70
2018-12-08T10:08:50.990Z,23.20
2018-12-08T10:11:21.865Z,20.90
2018-12-08T10:13:52.552Z,12.83
2018-12-08T10:16:23.278Z,25.43
2018-12-08T10:18:53.885Z,22.00
2018-12-08T10:21:24.463Z,13.53
2018-12-08T10:23:55.155Z,19.70
2018-12-08T10:26:25.757Z,28.77
2018-12-08T10:28:56.523Z,20.37
2018-12-08T10:31:27.068Z,13.47
2018-12-08T10:33:57.831Z,14.87
2018-12-08T10:36:28.603Z,23.93
2018-12-08T10:38:59.138Z,16.57
2018-12-08T10:41:29.722Z,28.23
2018-12-08T10:44:00.299Z,18.80
2018-12-08T10:46:31.096Z,21.57
2018-12-08T10:49:02.153Z,19.00
2018-12-08T10:51:33.194Z,29.43
2018-12-08T10:54:06.336Z,20.13
2018-12-08T10:56:37.086Z,25.23
2018-12-08T10:59:07.791Z,21.50
2018-12-08T11:01:43.405Z,15.97
2018-12-08T11:04:14.060Z,25.40
2018-12-08T11:06:47.074Z,15.63
2018-12-08T11:09:18.082Z,16.10
2018-12-08T11:11:48.880Z,33.43
2018-12-08T11:14:19.810Z,28.37
2018-12-08T11:16:50.369Z,26.97
2018-12-08T11:19:21.357Z,16.20
2018-12-08T11:21:52.327Z,33.77
2018-12-08T11:24:23.276Z,40.13
2018-12-08T11:26:53.717Z,35.47
2018-12-08T11:29:24.563Z,34.47
2018-12-08T11:31:55.234Z,38.60
2018-12-08T11:34:26.073Z,33.70
2018-12-08T11:36:57.117Z,40.20
2018-12-08T11:39:27.657Z,30.37
2018-12-08T11:41:58.745Z,22.30
2018-12-08T11:44:29.677Z,23.27
2018-12-08T11:47:00.676Z,37.93
2018-12-08T11:49:31.383Z,28.10
2018-12-08T11:52:02.004Z,25.93
2018-12-08T11:54:32.472Z,15.40
2018-12-08T11:57:02.914Z,34.47
2018-12-08T11:59:33.899Z,31.50
2018-12-08T12:02:04.566Z,37.37
2018-12-08T12:04:35.502Z,20.13
2018-12-08T12:07:06.034Z,37.20
2018-12-08T12:09:36.937Z,49.30
2018-12-08T12:12:07.839Z,29.33
2018-12-08T12:14:48.694Z,37.33
2018-12-08T12:17:19.427Z,32.67
2018-12-08T12:19:50.100Z,40.00
2018-12-08T12:22:20.843Z,26.47
2018-12-08T12:24:51.249Z,25.97
2018-12-08T12:27:21.838Z,17.00
2018-12-08T12:29:52.648Z,13.33
2018-12-08T12:32:23.536Z,18.63
2018-12-08T12:34:53.973Z,24.30
2018-12-08T12:37:24.967Z,16.40
2018-12-08T12:39:55.661Z,26.97
2018-12-08T12:42:26.629Z,23.50
2018-12-08T12:44:57.315Z,22.57
2018-12-08T12:47:28.164Z,15.83
2018-12-08T12:49:58.810Z,18.00
2018-12-08T12:52:29.344Z,21.97
2018-12-08T12:54:59.951Z,18.97
2018-12-08T12:57:30.687Z,31.33
2018-12-08T13:00:01.533Z,29.97
2018-12-08T13:02:32.544Z,20.17
2018-12-08T13:05:03.410Z,14.87
2018-12-08T13:07:33.971Z,15.03
2018-12-08T13:10:04.635Z,11.27
2018-12-08T13:12:35.929Z,12.17
2018-12-08T13:15:07.080Z,12.87
2018-12-08T13:17:37.767Z,23.17
2018-12-08T13:20:08.340Z,15.17
2018-12-08T13:22:39.014Z,13.43
2018-12-08T13:25:22.961Z,11.70
2018-12-08T13:27:53.624Z,11.87
2018-12-08T13:30:24.505Z,13.83
2018-12-08T13:32:55.440Z,11.10
2018-12-08T13:35:36.636Z,12.33
2018-12-08T13:38:07.301Z,13.40
2018-12-08T13:40:37.972Z,15.43
2018-12-08T13:43:08.601Z,12.97
2018-12-08T13:45:39.222Z,14.63
2018-12-08T13:48:10.257Z,12.80
2018-12-08T13:50:41.183Z,12.03
2018-12-08T13:53:11.944Z,12.90
2018-12-08T13:55:42.612Z,11.87
2018-12-08T13:58:13.364Z,12.03
2018-12-08T14:00:44.290Z,11.60
2018-12-08T14:03:14.789Z,12.77
2018-12-08T14:05:45.591Z,12.50
2018-12-08T14:08:16.300Z,11.90
2018-12-08T14:10:47.109Z,12.03
2018-12-08T14:13:17.632Z,16.13
2018-12-08T14:15:48.314Z,14.10
2018-12-08T14:18:18.808Z,14.40
2018-12-08T14:20:49.830Z,13.80
2018-12-08T14:23:20.685Z,16.27
2018-12-08T14:25:51.313Z,17.33
2018-12-08T14:28:22.207Z,18.53
2018-12-08T14:30:53.045Z,19.07
2018-12-08T14:33:23.692Z,22.90
2018-12-08T14:35:54.179Z,25.43
2018-12-08T14:38:28.071Z,28.27
2018-12-08T14:40:59.099Z,31.40
2018-12-08T14:43:30.855Z,37.63
2018-12-08T14:46:01.542Z,40.53
2018-12-08T14:48:31.954Z,42.07
2018-12-08T14:51:02.837Z,45.08
2018-12-08T14:53:34.078Z,49.43
2018-12-08T14:56:04.933Z,51.45
2018-12-08T14:58:35.553Z,48.13
2018-12-08T15:01:06.343Z,49.33
2018-12-08T15:03:37.099Z,51.88
2018-12-08T15:06:08.061Z,60.48
2018-12-08T15:08:39.007Z,85.42
2018-12-08T15:11:09.796Z,65.05
2018-12-08T15:13:40.653Z,82.55
2018-12-08T15:16:11.383Z,65.17
2018-12-08T15:18:42.314Z,68.33
2018-12-08T15:21:13.143Z,65.28
2018-12-08T15:23:44.158Z,69.65
2018-12-08T15:26:14.832Z,64.97
2018-12-08T15:28:45.324Z,60.38
2018-12-08T15:31:15.774Z,54.13
2018-12-08T15:33:46.268Z,39.88
2018-12-08T15:36:17.110Z,35.55
2018-12-08T15:38:47.712Z,35.65
2018-12-08T15:41:18.426Z,33.55
2018-12-08T15:43:49.629Z,28.30
2018-12-08T15:46:20.180Z,29.18
2018-12-08T15:48:51.107Z,34.65
2018-12-08T15:51:21.847Z,37.55
2018-12-08T15:53:52.643Z,38.02
2018-12-08T15:56:23.264Z,33.42
2018-12-08T15:58:55.086Z,31.85
2018-12-08T16:01:25.923Z,31.97
2018-12-08T16:03:56.571Z,28.10
2018-12-08T16:06:27.240Z,26.60
2018-12-08T16:08:57.825Z,25.20
2018-12-08T16:11:28.717Z,24.63
2018-12-08T16:13:59.327Z,25.65
2018-12-08T16:16:29.956Z,24.85
2018-12-08T16:19:00.660Z,30.65
2018-12-08T16:21:31.342Z,33.53
2018-12-08T16:24:02.280Z,32.98
2018-12-08T16:26:33.118Z,28.83
2018-12-08T16:29:09.151Z,30.35
2018-12-08T16:31:39.979Z,31.17
2018-12-08T16:34:11.017Z,31.48
2018-12-08T16:36:42.090Z,32.00
2018-12-08T16:39:14.606Z,29.77
2018-12-08T16:41:46.071Z,28.17
2018-12-08T16:44:45.621Z,29.70
2018-12-08T16:47:16.236Z,30.37
2018-12-08T16:49:46.852Z,32.78
2018-12-08T16:52:17.604Z,28.95
2018-12-08T16:58:02.557Z,25.95
2018-12-08T17:00:33.219Z,27.15
2018-12-08T17:06:21.017Z,25.95
2018-12-08T17:08:51.871Z,25.17
2018-12-08T17:11:28.393Z,26.42
2018-12-08T17:13:59.278Z,26.15
2018-12-08T17:16:30.223Z,23.62
2018-12-08T17:19:01.419Z,22.20
2018-12-08T17:21:32.037Z,21.20
2018-12-08T17:24:02.736Z,20.62
2018-12-08T17:26:33.592Z,21.25
2018-12-08T17:29:06.081Z,20.25
2018-12-08T17:31:37.425Z,19.42
2018-12-08T17:34:08.092Z,19.57
2018-12-08T17:36:39.087Z,26.93
2018-12-08T17:39:10.862Z,21.17
2018-12-08T17:41:41.742Z,19.52
2018-12-08T17:44:12.833Z,17.00
2018-12-08T17:46:43.611Z,15.85
2018-12-08T17:49:14.378Z,23.18
2018-12-08T17:51:45.015Z,24.27
2018-12-08T17:54:15.617Z,16.25
2018-12-08T17:56:46.542Z,12.98
2018-12-08T17:59:17.289Z,12.93
2018-12-08T18:01:47.808Z,15.15
2018-12-08T18:04:19.606Z,14.83
2018-12-08T18:06:50.357Z,13.05
2018-12-08T18:09:20.968Z,13.78
2018-12-08T18:11:52.083Z,14.28
2018-12-08T18:14:22.617Z,19.02
2018-12-08T18:16:53.160Z,15.45
2018-12-08T18:19:23.841Z,17.15
2018-12-08T18:21:54.646Z,14.55
2018-12-08T18:24:25.288Z,20.72
2018-12-08T18:26:57.350Z,17.52
2018-12-08T18:29:27.859Z,16.40
2018-12-08T18:31:58.598Z,15.88
2018-12-08T18:34:29.160Z,22.27
2018-12-08T18:36:59.905Z,12.55
2018-12-08T18:39:30.830Z,10.88
2018-12-08T18:42:01.531Z,10.82
2018-12-08T18:44:32.385Z,10.98
2018-12-08T18:47:02.997Z,11.33
2018-12-08T18:49:33.592Z,12.82
2018-12-08T18:52:04.178Z,13.83
2018-12-08T18:54:34.724Z,14.05
2018-12-08T18:57:05.542Z,13.38
2018-12-08T18:59:36.669Z,15.32
2018-12-08T19:02:07.436Z,16.75
2018-12-08T19:04:38.101Z,18.27
2018-12-08T19:07:08.921Z,14.83
2018-12-08T19:09:40.586Z,15.03
2018-12-08T19:12:11.607Z,16.75
2018-12-08T19:14:42.267Z,14.25
2018-12-08T19:17:13.009Z,14.23
2018-12-08T19:19:43.935Z,15.03
2018-12-08T19:22:14.663Z,14.98
2018-12-08T19:24:46.092Z,14.60
2018-12-08T19:27:16.706Z,16.00
2018-12-08T19:29:48.374Z,14.30
2018-12-08T19:32:19.213Z,14.93
2018-12-08T19:34:49.935Z,12.60
2018-12-08T19:37:20.545Z,13.03
2018-12-08T19:39:51.425Z,13.95
2018-12-08T19:42:21.860Z,13.20
2018-12-08T19:44:52.902Z,13.38
2018-12-08T19:47:23.739Z,13.85
2018-12-08T19:49:54.341Z,13.22
2018-12-08T19:52:25.074Z,13.45
2018-12-08T19:54:56.121Z,13.68
2018-12-08T19:57:26.983Z,12.95
2018-12-08T19:59:57.506Z,13.30
2018-12-08T20:02:28.157Z,13.70
2018-12-08T20:04:59.080Z,13.08
2018-12-08T20:07:30.106Z,13.40
2018-12-08T20:10:00.721Z,13.60
2018-12-08T20:12:32.303Z,16.48
2018-12-08T20:15:02.951Z,15.60
2018-12-08T20:17:33.516Z,15.15
2018-12-08T20:20:04.341Z,16.05
2018-12-08T20:22:35.048Z,22.98
2018-12-08T20:25:06.199Z,22.10
2018-12-08T20:27:37.228Z,18.50
2018-12-08T20:30:08.947Z,20.32
2018-12-08T20:32:39.815Z,19.75
2018-12-08T20:35:10.596Z,19.67
2018-12-08T20:37:41.128Z,19.65
2018-12-08T20:40:12.400Z,21.12
2018-12-08T20:42:43.007Z,23.00
2018-12-08T20:45:13.682Z,31.48
2018-12-08T20:47:44.442Z,20.60
2018-12-08T20:50:15.250Z,19.27
2018-12-08T20:52:46.030Z,15.50
2018-12-08T20:55:17.817Z,15.78
2018-12-08T20:57:48.539Z,15.98
2018-12-08T21:00:19.379Z,15.83
2018-12-08T21:02:49.962Z,16.32
2018-12-08T21:05:20.575Z,16.75
2018-12-08T21:07:51.197Z,15.43
2018-12-08T21:10:21.905Z,13.90
2018-12-08T21:12:52.772Z,15.48
2018-12-08T21:15:23.288Z,15.38
2018-12-08T21:17:54.042Z,15.25
2018-12-08T21:20:24.727Z,16.90
2018-12-08T21:22:55.343Z,17.55
2018-12-08T21:25:25.945Z,16.90
2018-12-08T21:27:56.413Z,16.60
2018-12-08T21:30:26.934Z,17.35
2018-12-08T21:32:57.547Z,17.67
2018-12-08T21:35:28.450Z,22.45
2018-12-08T21:37:59.290Z,18.15
2018-12-08T21:40:30.850Z,17.20
2018-12-08T21:43:01.498Z,16.23
2018-12-08T21:45:32.104Z,17.42
2018-12-08T21:48:02.633Z,17.17
2018-12-08T21:50:33.281Z,16.97
2018-12-08T21:53:03.800Z,17.87
2018-12-08T21:55:34.756Z,17.73
2018-12-08T21:58:05.607Z,18.42
2018-12-08T22:00:36.386Z,17.52
2018-12-08T22:03:06.908Z,17.80
2018-12-08T22:05:37.579Z,18.02
2018-12-08T22:08:08.123Z,17.70
2018-12-08T22:10:39.072Z,18.00
2018-12-08T22:13:09.865Z,16.87
2018-12-08T22:15:41.113Z,17.73
2018-12-08T22:18:11.732Z,19.65
2018-12-08T22:20:42.429Z,18.52
2018-12-08T22:23:13.046Z,17.27
2018-12-08T22:25:43.582Z,17.80
2018-12-08T22:28:14.234Z,18.42
2018-12-08T22:30:45.545Z,16.85
2018-12-08T22:33:16.093Z,17.15
2018-12-08T22:35:47.088Z,17.52
2018-12-08T22:38:17.700Z,16.70
2018-12-08T22:40:48.490Z,16.97
2018-12-08T22:43:19.101Z,16.97
2018-12-08T22:45:49.839Z,16.48
2018-12-08T22:48:20.938Z,17.62
2018-12-08T22:50:51.584Z,16.60
2018-12-08T22:53:22.246Z,17.42
2018-12-08T22:55:56.233Z,17.52
2018-12-08T22:58:27.175Z,19.17
2018-12-08T23:00:57.819Z,19.07
2018-12-08T23:03:28.747Z,20.57
2018-12-08T23:05:59.581Z,19.45
2018-12-08T23:08:31.341Z,20.12
2018-12-08T23:11:01.920Z,19.80
2018-12-08T23:13:34.085Z,17.50
2018-12-08T23:16:04.812Z,18.42
2018-12-08T23:18:35.380Z,17.52
2018-12-08T23:21:06.340Z,17.25
2018-12-08T23:23:36.860Z,17.05
2018-12-08T23:26:07.652Z,17.57
2018-12-08T23:28:40.108Z,17.45
2018-12-08T23:31:11.256Z,17.73
2018-12-08T23:33:42.247Z,16.80
2018-12-08T23:36:13.002Z,16.15
2018-12-08T23:38:43.974Z,15.93
2018-12-08T23:41:15.084Z,16.12
2018-12-08T23:43:45.701Z,15.32
2018-12-08T23:46:16.381Z,14.95
2018-12-08T23:48:47.073Z,17.50
2018-12-08T23:51:18.582Z,15.93
2018-12-08T23:53:49.833Z,15.65
2018-12-08T23:56:20.823Z,18.55
2018-12-08T23:58:51.831Z,17.42
